Bookmark and Share
Track history (hours):
 

Fykan

Last reported at 2014-Apr-20 15:17 UTC. Time now 2014-Apr-20 16:05 UTC.
Position N 66°36' E 012°59'.

Length 52 m; draft 3.3 m.

Type: Ship. MMSI: 259681000.

NotesDate/timePositionNaut miles runAvg speedWind from/ knotsBaromVisibWave heightAir tempDewpointWater temp
2014-Apr-20 15:17N 66°36' E 012°59'4 5.8
2014-Apr-20 14:33N 66°34' E 012°50'2 0.1
2014-Apr-19 10:30N 66°35' E 012°45'6 5.8
2014-Apr-19 09:32N 66°36' E 012°59'5 2.4
2014-Apr-19 07:22N 66°38' E 013°10'5 4.7
2014-Apr-19 06:19N 66°36' E 012°59'5 6.0
2014-Apr-19 05:32N 66°34' E 012°49'4 0.4
2014-Apr-18 21:32N 66°36' E 012°41'7 6.6
2014-Apr-18 20:29N 66°35' E 012°59'5 2.6
2014-Apr-18 18:32N 66°35' E 013°12'1 1.0
2014-Apr-18 17:13N 66°34' E 013°11'5 2.5
2014-Apr-18 15:13N 66°36' E 012°59'4 6.1
2014-Apr-18 14:33N 66°34' E 012°50'3 0.2
2014-Apr-17 18:28N 66°35' E 012°43'6 6.0
2014-Apr-17 17:25N 66°35' E 012°59'1 0.2
2014-Apr-17 14:31N 66°36' E 012°59'5 5.3
2014-Apr-17 13:33N 66°34' E 012°47'2 1.0
2014-Apr-17 11:10N 66°35' E 012°42'5 7.6
2014-Apr-17 10:30N 66°34' E 012°54'8 2.8
2014-Apr-17 07:30N 66°38' E 013°13'6 5.1
2014-Apr-17 06:23N 66°36' E 012°59'4 5.2
2014-Apr-17 05:33N 66°34' E 012°50'9 0.6
2014-Apr-16 15:23N 66°38' E 013°09'5 5.4
2014-Apr-16 14:32N 66°36' E 012°59'5 5.4
2014-Apr-16 13:33N 66°34' E 012°46'2 0.7
2014-Apr-16 11:03N 66°35' E 012°43'4 7.1
2014-Apr-16 10:33N 66°34' E 012°50'4 1.0
2014-Apr-16 06:27N 66°36' E 012°59'5 4.9
2014-Apr-16 05:32N 66°34' E 012°49'3 0.4
2014-Apr-15 21:19N 66°35' E 012°42'6 7.3
2014-Apr-15 20:32N 66°33' E 012°56'3 0.8
2014-Apr-15 17:09N 66°36' E 012°59'4 5.0
2014-Apr-15 16:19N 66°34' E 012°50'8 0.7
2014-Apr-15 05:33N 66°34' E 013°10'5 0.4
2014-Apr-14 16:33N 66°36' E 012°59'1 0.2
2014-Apr-14 13:31N 66°36' E 012°59'7 2.3
2014-Apr-14 10:30N 66°36' E 012°41'2 0.2
2014-Apr-13 21:31N 66°34' E 012°46'5 5.4
2014-Apr-13 20:33N 66°36' E 012°59'5 2.4
2014-Apr-13 18:31N 66°35' E 013°11'5 1.6
2014-Apr-13 15:20N 66°36' E 012°59'4 5.6
2014-Apr-13 14:32N 66°34' E 012°50'1 0.0
2014-Apr-12 10:33N 66°34' E 012°47'5 5.0
2014-Apr-12 09:33N 66°36' E 012°59'0 0.1
2014-Apr-12 06:24N 66°36' E 012°59'4 5.3
2014-Apr-12 05:33N 66°34' E 012°49'4 0.5
2014-Apr-11 21:34N 66°36' E 012°41'5 1.1
2014-Apr-11 16:32N 66°34' E 012°54'5 1.0
2014-Apr-11 11:19N 66°35' E 012°42'7 7.0
2014-Apr-11 10:23N 66°34' E 012°58'5 2.3
2014-Apr-11 08:07N 66°35' E 013°11'3 1.8
2014-Apr-11 06:15N 66°38' E 013°08'4 4.8
2014-Apr-11 05:23N 66°36' E 012°59'4 5.2
2014-Apr-11 04:32N 66°34' E 012°50'1 0.1
2014-Apr-10 18:30N 66°34' E 012°47'5 5.3
2014-Apr-10 17:33N 66°35' E 012°59'  

Dump ship's entire track history

sailing weather and tide predictions

Fykan — LLDJ — position and weather